Time;durP1;ratioP1;P1;durP2;ratioP2;P2;SDS_P1;SDS_P2;PMS_P1;PMS_P2;Temp;Humidity;BMP_temperature;BMP_pressure;BME280_temperature;BME280_humidity;BME280_pressure;Samples;Min_cycle;Max_cycle;Signal;HPM_P1;HPM_P2
2021/05/15 00:01:48;;;;;;;9.15;8.35;;;;;;;11.38;85.49;98249.24;124977;1102;64551;-90
2021/05/15 00:04:17;;;;;;;10.70;8.60;;;;;;;11.36;85.24;98259.19;124932;1096;64336;-91
2021/05/15 00:06:44;;;;;;;9.07;8.27;;;;;;;11.34;85.35;98250.45;125020;1101;64415;-89
2021/05/15 00:09:12;;;;;;;9.07;8.10;;;;;;;11.35;85.26;98260.17;125064;1101;64349;-90
2021/05/15 00:11:40;;;;;;;10.00;9.10;;;;;;;11.36;85.43;98253.84;125024;1101;64323;-87
2021/05/15 00:14:07;;;;;;;10.40;9.50;;;;;;;11.35;85.44;98253.01;124886;1101;64533;-89
2021/05/15 00:16:35;;;;;;;11.43;10.53;;;;;;;11.35;85.29;98252.16;125226;1101;64262;-89
2021/05/15 00:19:03;;;;;;;10.70;9.90;;;;;;;11.32;85.29;98249.72;125095;1096;64523;-89
2021/05/15 00:21:30;;;;;;;11.10;10.07;;;;;;;11.31;85.21;98251.55;125321;1101;64287;-89
2021/05/15 00:23:57;;;;;;;11.43;10.30;;;;;;;11.29;85.30;98253.48;124979;1102;64320;-87
2021/05/15 00:26:26;;;;;;;12.73;10.73;;;;;;;11.30;85.41;98249.03;125135;1101;64473;-89
2021/05/15 00:28:54;;;;;;;10.57;9.47;;;;;;;11.27;85.27;98250.13;125027;1096;64409;-90
2021/05/15 00:31:21;;;;;;;10.50;9.60;;;;;;;11.24;85.31;98253.02;125012;1097;64367;-90
2021/05/15 00:33:49;;;;;;;11.37;10.27;;;;;;;11.21;85.34;98255.94;125049;1103;64339;-90
2021/05/15 00:36:16;;;;;;;11.27;10.27;;;;;;;11.17;85.40;98257.17;125150;1101;64259;-90
2021/05/15 00:38:44;;;;;;;12.10;11.07;;;;;;;11.10;85.26;98248.81;124953;1101;64721;-91
2021/05/15 00:41:11;;;;;;;12.80;11.50;;;;;;;11.05;85.38;98256.33;124815;1096;64415;-90
2021/05/15 00:43:45;;;;;;;12.03;10.83;;;;;;;10.99;85.42;98255.02;125013;1101;64448;-90
2021/05/15 00:46:13;;;;;;;12.00;10.93;;;;;;;10.93;85.33;98249.34;125090;1101;64339;-91
2021/05/15 00:48:40;;;;;;;12.13;10.80;;;;;;;10.90;85.52;98254.89;124916;1101;64447;-90
2021/05/15 00:51:08;;;;;;;11.90;10.70;;;;;;;10.90;85.50;98252.23;124896;1101;64357;-91
2021/05/15 00:53:35;;;;;;;11.80;10.60;;;;;;;10.89;85.51;98250.55;124832;1096;64400;-92
2021/05/15 00:56:02;;;;;;;13.10;11.87;;;;;;;10.84;85.37;98245.58;124845;1101;64387;-90
2021/05/15 00:58:30;;;;;;;13.67;12.13;;;;;;;10.81;85.46;98252.98;124904;1096;64459;-90
2021/05/15 01:00:57;;;;;;;15.57;13.20;;;;;;;10.75;85.48;98257.83;125058;1101;64230;-92
2021/05/15 01:03:24;;;;;;;15.63;14.03;;;;;;;10.73;85.46;98256.25;124703;1102;64352;-90
2021/05/15 01:05:52;;;;;;;14.97;13.47;;;;;;;10.69;85.40;98249.45;124847;1096;64390;-91
2021/05/15 01:08:19;;;;;;;14.50;12.97;;;;;;;10.62;85.42;98248.27;124874;1102;64429;-91
2021/05/15 01:10:46;;;;;;;14.03;12.63;;;;;;;10.56;85.38;98249.61;124912;1102;64304;-90
2021/05/15 01:13:13;;;;;;;13.33;11.17;;;;;;;10.50;85.25;98250.06;124860;1096;64303;-90
2021/05/15 01:15:41;;;;;;;11.07;10.03;;;;;;;10.41;85.09;98267.63;124736;1103;64426;-92
2021/05/15 01:18:08;;;;;;;11.83;10.73;;;;;;;10.33;85.11;98268.22;124853;1101;64376;-92
2021/05/15 01:20:36;;;;;;;11.63;10.60;;;;;;;10.25;85.06;98259.11;124878;1101;64361;-92
2021/05/15 01:23:03;;;;;;;14.77;13.40;;;;;;;10.17;85.23;98265.02;124897;1096;64705;-92
2021/05/15 01:25:30;;;;;;;15.13;13.73;;;;;;;10.14;85.68;98259.94;125099;1096;64338;-91
2021/05/15 01:27:57;;;;;;;13.70;12.40;;;;;;;10.09;85.42;98264.77;124791;1096;64394;-92
2021/05/15 01:30:25;;;;;;;14.50;13.13;;;;;;;10.06;85.55;98262.34;124833;1101;64349;-91
2021/05/15 01:32:52;;;;;;;15.13;13.53;;;;;;;10.01;85.78;98268.02;125062;1101;64320;-91
2021/05/15 01:35:19;;;;;;;15.20;13.70;;;;;;;10.00;85.91;98268.95;124747;1102;64336;-91
2021/05/15 01:37:47;;;;;;;17.15;15.35;;;;;;;10.01;85.79;98262.69;125019;1096;64750;-91
2021/05/15 01:40:14;;;;;;;19.03;15.67;;;;;;;9.99;85.80;98258.45;124753;1096;64392;-91
2021/05/15 01:42:42;;;;;;;17.20;15.47;;;;;;;9.94;85.74;98263.27;124985;1101;64360;-91
2021/05/15 01:45:09;;;;;;;18.90;16.90;;;;;;;9.87;85.77;98258.42;125060;1101;64748;-91
2021/05/15 01:47:37;;;;;;;20.77;18.67;;;;;;;9.84;85.80;98269.27;124925;1096;64259;-91
2021/05/15 01:50:07;;;;;;;19.43;15.93;;;;;;;9.80;85.86;98269.64;124836;1103;64427;-92
2021/05/15 01:52:34;;;;;;;18.20;16.08;;;;;;;9.76;86.20;98260.18;124938;1102;64259;-91
2021/05/15 01:55:12;;;;;;;18.10;16.10;;;;;;;9.74;85.95;98260.31;124927;1096;64329;-92
2021/05/15 01:57:39;;;;;;;17.60;15.57;;;;;;;9.73;86.09;98258.59;124801;1101;64429;-92
2021/05/15 02:00:32;;;;;;;17.63;15.63;;;;;;;9.73;86.13;98260.42;124820;1102;64429;-91
2021/05/15 02:02:59;;;;;;;18.03;15.80;;;;;;;9.72;86.22;98259.58;124924;1096;64327;-91
2021/05/15 02:05:26;;;;;;;20.57;16.40;;;;;;;9.73;86.21;98257.75;124889;1101;64261;-91
2021/05/15 02:07:54;;;;;;;19.65;16.95;;;;;;;9.73;86.13;98257.75;125011;1096;64371;-91
2021/05/15 02:10:21;;;;;;;19.90;17.53;;;;;;;9.69;85.99;98259.81;125071;1096;64326;-91
2021/05/15 02:12:49;;;;;;;20.15;18.10;;;;;;;9.66;85.99;98260.89;124773;1101;64677;-92
2021/05/15 02:15:16;;;;;;;18.47;16.57;;;;;;;9.63;86.16;98258.43;124888;1102;64345;-92
2021/05/15 02:17:43;;;;;;;20.37;16.73;;;;;;;9.58;86.03;98254.42;124921;1096;64301;-92
2021/05/15 02:20:11;;;;;;;17.10;15.30;;;;;;;9.54;85.92;98258.30;124825;1101;64922;-89
2021/05/15 02:22:39;;;;;;;18.23;16.37;;;;;;;9.50;85.99;98248.83;124812;1096;64243;-92
2021/05/15 02:25:07;;;;;;;13.43;12.03;;;;;;;9.47;85.88;98257.88;124906;1095;64349;-90
2021/05/15 02:27:35;;;;;;;16.00;14.30;;;;;;;9.41;85.84;98250.38;124918;1096;64300;-90
2021/05/15 02:30:03;;;;;;;17.27;15.53;;;;;;;9.38;85.92;98245.28;124812;1102;64377;-89
2021/05/15 02:32:30;;;;;;;19.57;15.63;;;;;;;9.32;85.97;98251.91;124820;1102;64837;-89
2021/05/15 02:34:57;;;;;;;19.27;16.90;;;;;;;9.30;85.89;98258.30;124800;1096;64875;-90
2021/05/15 02:37:25;;;;;;;20.30;17.73;;;;;;;9.24;85.97;98259.57;124933;1102;64309;-91
2021/05/15 02:39:52;;;;;;;19.73;17.63;;;;;;;9.19;86.10;98259.94;124835;1096;64644;-89
2021/05/15 02:42:19;;;;;;;18.65;16.30;;;;;;;9.17;86.20;98256.53;124790;1101;64396;-88
2021/05/15 02:44:47;;;;;;;16.90;15.10;;;;;;;9.19;86.20;98259.94;124978;1096;64454;-89
2021/05/15 02:47:14;;;;;;;19.60;15.30;;;;;;;9.18;86.30;98257.38;124736;1101;64407;-91
2021/05/15 02:49:41;;;;;;;18.80;15.33;;;;;;;9.19;86.29;98254.61;125110;1102;64338;-90
2021/05/15 02:52:09;;;;;;;19.73;16.03;;;;;;;9.21;86.41;98257.98;125037;1102;64403;-92
2021/05/15 02:54:36;;;;;;;16.15;14.35;;;;;;;9.23;86.32;98260.55;124830;1102;64442;-89
2021/05/15 02:57:04;;;;;;;14.40;12.90;;;;;;;9.27;86.22;98259.38;125078;1096;64249;-89
2021/05/15 02:59:31;;;;;;;16.07;14.27;;;;;;;9.33;86.31;98268.70;124860;1101;64259;-87
2021/05/15 03:01:59;;;;;;;18.83;16.73;;;;;;;9.38;86.23;98262.08;125068;1101;64287;-90
2021/05/15 03:04:27;;;;;;;23.03;18.13;;;;;;;9.43;86.29;98267.07;124831;1097;64313;-90
2021/05/15 03:06:54;;;;;;;19.10;15.60;;;;;;;9.48;86.14;98270.23;125006;1096;64423;-89
2021/05/15 03:09:21;;;;;;;17.30;14.73;;;;;;;9.54;86.15;98268.93;124973;1101;64374;-89
2021/05/15 03:11:49;;;;;;;15.63;12.87;;;;;;;9.60;86.04;98266.64;124860;1102;64352;-89
2021/05/15 03:14:16;;;;;;;15.07;13.43;;;;;;;9.68;85.87;98268.73;124874;1102;64342;-89
2021/05/15 03:16:44;;;;;;;16.10;14.55;;;;;;;9.74;85.57;98264.77;124782;1096;64323;-89
2021/05/15 03:19:11;;;;;;;19.13;14.07;;;;;;;9.79;85.70;98267.92;124962;1101;64338;-89
2021/05/15 03:21:39;;;;;;;16.57;13.20;;;;;;;9.90;85.48;98267.98;124773;1096;64384;-89
2021/05/15 03:24:06;;;;;;;16.50;13.77;;;;;;;10.02;85.41;98268.85;124928;1101;65920;-89
2021/05/15 03:26:34;;;;;;;17.55;15.65;;;;;;;10.48;84.82;98274.18;124834;1096;64345;-90
2021/05/15 03:29:01;;;;;;;16.05;14.45;;;;;;;11.11;83.74;98269.19;125049;1096;64275;-91
2021/05/15 03:31:28;;;;;;;15.57;12.90;;;;;;;11.62;82.68;98265.04;124913;1096;64334;-91
2021/05/15 03:33:55;;;;;;;12.77;11.33;;;;;;;12.00;81.90;98266.34;124927;1097;64357;-90
2021/05/15 03:36:24;;;;;;;14.00;11.97;;;;;;;12.20;81.30;98268.18;125217;1101;64339;-90
2021/05/15 03:38:51;;;;;;;12.97;11.73;;;;;;;12.29;80.87;98272.72;125096;1102;64356;-91
2021/05/15 03:41:19;;;;;;;13.60;12.40;;;;;;;12.41;80.37;98264.66;124956;1097;64334;-90
2021/05/15 03:43:46;;;;;;;13.87;12.33;;;;;;;12.77;79.75;98263.28;124932;1102;64489;-90
2021/05/15 03:46:14;;;;;;;15.47;13.83;;;;;;;12.55;79.55;98266.97;125193;1101;64311;-90
2021/05/15 03:48:41;;;;;;;13.00;11.80;;;;;;;12.27;79.92;98268.52;125059;1096;64389;-90
2021/05/15 03:51:08;;;;;;;15.30;13.87;;;;;;;12.74;79.38;98274.23;125264;1096;64249;-89
2021/05/15 03:53:35;;;;;;;14.80;13.45;;;;;;;12.71;78.76;98264.64;125109;1097;64434;-89
2021/05/15 03:56:03;;;;;;;14.17;12.77;;;;;;;12.35;78.73;98271.38;125099;1101;64314;-90
2021/05/15 03:58:30;;;;;;;16.13;14.53;;;;;;;12.25;78.98;98273.98;125132;1097;64317;-89
2021/05/15 04:00:58;;;;;;;13.77;12.57;;;;;;;12.47;78.83;98282.82;125212;1097;64323;-90
2021/05/15 04:03:25;;;;;;;15.53;14.03;;;;;;;12.77;77.90;98281.13;125182;1096;64421;-89
2021/05/15 04:05:52;;;;;;;14.93;13.43;;;;;;;12.54;78.07;98281.32;125239;1102;64347;-89
2021/05/15 04:08:19;;;;;;;15.20;13.80;;;;;;;12.42;78.12;98282.37;125259;1096;64268;-87
2021/05/15 04:10:47;;;;;;;15.00;13.73;;;;;;;12.20;78.53;98286.04;125477;1096;64381;-89
2021/05/15 04:18:14;;;;;;;11.83;10.83;;;;;;;12.47;78.05;98296.19;125487;1097;64885;-89
2021/05/15 04:20:43;;;;;;;14.80;11.60;;;;;;;12.73;77.90;98291.26;125394;1101;64357;-89
2021/05/15 04:23:12;;;;;;;12.98;11.78;;;;;;;13.10;77.39;98296.89;125478;1101;64259;-89
2021/05/15 04:25:40;;;;;;;12.10;10.90;;;;;;;14.10;76.20;98293.25;125445;1101;64326;-88
2021/05/15 04:28:08;;;;;;;11.73;10.57;;;;;;;14.93;74.67;98282.80;125326;1097;64325;-86
2021/05/15 04:30:35;;;;;;;11.17;10.13;;;;;;;15.77;73.40;98282.61;125134;1096;64341;-86
2021/05/15 04:33:02;;;;;;;11.47;10.43;;;;;;;16.22;72.52;98284.34;125012;1101;64473;-89
2021/05/15 04:35:32;;;;;;;12.57;10.80;;;;;;;16.86;70.68;98281.44;125093;1097;64422;-90
2021/05/15 04:38:02;;;;;;;11.87;10.77;;;;;;;17.40;69.95;98286.53;125156;1102;64396;-92
2021/05/15 04:40:29;;;;;;;;;;;;;;;17.77;68.99;98289.68;124966;1102;64336;-90
2021/05/15 04:42:57;;;;;;;13.20;11.80;;;;;;;18.07;68.34;98281.98;124956;1097;64431;-90
2021/05/15 04:45:31;;;;;;;11.40;10.30;;;;;;;18.29;67.44;98283.16;125053;1097;64456;-90
2021/05/15 04:47:59;;;;;;;11.50;10.50;;;;;;;18.38;66.46;98282.16;125055;1101;64483;-90
2021/05/15 04:50:26;;;;;;;10.40;9.43;;;;;;;18.56;66.48;98290.06;124808;1102;64338;-90
2021/05/15 04:52:54;;;;;;;10.57;9.47;;;;;;;18.77;65.01;98289.56;124785;1102;64335;-91
2021/05/15 04:55:21;;;;;;;10.50;9.30;;;;;;;18.88;64.59;98293.75;124790;1096;64323;-90
2021/05/15 04:57:48;;;;;;;11.30;10.20;;;;;;;19.13;64.74;98291.80;125103;1101;64348;-91
2021/05/15 05:00:16;;;;;;;10.57;9.50;;;;;;;19.48;64.22;98297.72;124873;1102;64399;-91
2021/05/15 05:02:44;;;;;;;9.97;9.10;;;;;;;19.58;63.40;98298.34;124949;1097;64326;-90
2021/05/15 05:05:11;;;;;;;10.70;9.60;;;;;;;19.74;62.71;98294.73;125191;1101;64211;-90
2021/05/15 05:07:39;;;;;;;10.20;9.30;;;;;;;19.87;61.95;98294.99;124927;1102;64355;-90
2021/05/15 05:10:07;;;;;;;10.63;9.50;;;;;;;19.98;61.67;98288.33;124992;1101;64329;-90
2021/05/15 05:12:34;;;;;;;10.90;9.97;;;;;;;20.12;60.99;98294.84;124800;1097;64426;-90
2021/05/15 05:15:02;;;;;;;9.37;8.47;;;;;;;20.26;60.82;98296.74;125160;1101;64446;-90
2021/05/15 05:17:30;;;;;;;8.57;7.57;;;;;;;20.33;59.76;98303.12;125247;1101;64320;-90
2021/05/15 05:19:57;;;;;;;9.30;7.70;;;;;;;20.41;59.62;98296.80;125122;1102;64331;-90
2021/05/15 05:22:24;;;;;;;8.80;8.00;;;;;;;20.56;59.28;98300.42;125064;1096;64432;-88
2021/05/15 05:24:52;;;;;;;8.63;7.83;;;;;;;20.77;59.22;98294.30;125081;1097;64352;-88
2021/05/15 05:27:22;;;;;;;8.25;7.55;;;;;;;20.99;58.77;98297.11;125149;1101;64339;-87
2021/05/15 05:29:49;;;;;;;8.43;7.63;;;;;;;21.12;58.35;98312.72;125209;1101;64326;-87
2021/05/15 05:32:19;;;;;;;8.70;7.90;;;;;;;21.31;58.61;98301.30;125068;1097;64341;-89
2021/05/15 05:34:46;;;;;;;9.43;7.83;;;;;;;21.39;57.96;98305.81;125177;1101;64368;-87
2021/05/15 05:37:13;;;;;;;9.07;7.80;;;;;;;21.44;57.21;98311.50;125174;1101;64326;-89
2021/05/15 05:39:40;;;;;;;8.37;7.63;;;;;;;21.53;57.07;98312.23;125330;1096;64332;-88
2021/05/15 05:42:08;;;;;;;8.00;7.20;;;;;;;21.64;56.57;98309.89;125074;1102;64335;-89
2021/05/15 05:44:35;;;;;;;8.43;7.63;;;;;;;21.81;56.35;98305.06;125120;1101;64421;-88
2021/05/15 05:47:02;;;;;;;10.20;7.90;;;;;;;22.04;56.04;98309.50;125156;1097;64354;-87
2021/05/15 05:49:29;;;;;;;8.23;7.17;;;;;;;22.22;55.41;98307.20;125209;1097;64342;-87
2021/05/15 05:51:57;;;;;;;9.03;7.80;;;;;;;22.27;55.20;98312.86;124994;1096;64531;-86
2021/05/15 05:54:24;;;;;;;8.80;7.10;;;;;;;22.35;54.68;98309.18;125141;1102;64304;-86
2021/05/15 05:56:51;;;;;;;7.33;6.63;;;;;;;22.38;54.54;98308.81;125620;1101;64163;-88
2021/05/15 05:59:18;;;;;;;7.90;7.13;;;;;;;22.44;54.96;98307.19;125590;1096;64683;-89
2021/05/15 06:01:45;;;;;;;7.80;6.97;;;;;;;22.59;54.50;98310.64;125596;1102;64441;-87
2021/05/15 06:04:13;;;;;;;7.15;6.20;;;;;;;22.65;53.89;98317.19;125420;1095;64332;-88
2021/05/15 06:06:40;;;;;;;8.13;7.43;;;;;;;22.74;53.73;98311.39;125372;1097;64491;-87
2021/05/15 06:09:07;;;;;;;7.10;6.50;;;;;;;22.86;53.74;98313.59;125719;1101;64329;-88
2021/05/15 06:11:34;;;;;;;8.57;6.30;;;;;;;22.83;53.28;98322.11;125699;1097;64327;-88
2021/05/15 06:14:03;;;;;;;7.13;6.47;;;;;;;22.63;52.63;98324.69;125415;1096;64348;-88
2021/05/15 06:16:33;;;;;;;6.80;6.20;;;;;;;22.45;51.66;98317.00;125335;1101;64246;-87
2021/05/15 06:19:00;;;;;;;7.30;5.30;;;;;;;21.95;51.20;98326.91;125618;1101;64214;-88
2021/05/15 06:21:27;;;;;;;6.20;5.60;;;;;;;21.73;52.00;98331.47;125428;1102;64368;-87
2021/05/15 06:23:54;;;;;;;5.47;4.97;;;;;;;21.65;52.06;98329.70;125443;1096;64322;-88
2021/05/15 06:26:22;;;;;;;6.10;5.50;;;;;;;21.34;50.88;98330.73;125751;1101;64332;-87
2021/05/15 06:28:49;;;;;;;5.90;5.30;;;;;;;21.07;51.65;98337.65;125551;1101;64489;-88
2021/05/15 06:31:17;;;;;;;6.10;5.50;;;;;;;20.99;52.66;98340.45;125699;1101;64178;-89
2021/05/15 06:33:44;;;;;;;5.90;5.37;;;;;;;21.01;52.42;98341.08;125418;1102;64429;-89
2021/05/15 06:36:11;;;;;;;6.27;5.30;;;;;;;21.15;52.51;98337.56;125349;1096;64900;-89
2021/05/15 06:38:41;;;;;;;5.43;4.93;;;;;;;21.08;51.10;98339.32;125652;1101;64387;-89
2021/05/15 06:41:09;;;;;;;4.73;4.27;;;;;;;20.86;52.21;98338.38;126200;1097;64302;-90
2021/05/15 06:43:37;;;;;;;5.50;5.00;;;;;;;20.89;52.60;98334.45;126151;1097;64204;-89
2021/05/15 06:46:04;;;;;;;6.40;5.47;;;;;;;20.96;53.06;98338.95;126180;1101;64275;-91
2021/05/15 06:48:31;;;;;;;5.90;5.27;;;;;;;20.98;51.57;98336.88;125461;1101;64378;-91
2021/05/15 06:50:58;;;;;;;4.90;4.50;;;;;;;20.80;51.51;98342.66;125920;1101;64387;-89
2021/05/15 06:53:27;;;;;;;5.10;4.70;;;;;;;20.74;52.74;98345.25;125945;1101;64306;-88
2021/05/15 06:55:54;;;;;;;5.27;4.73;;;;;;;20.94;53.31;98342.88;126261;1101;64275;-89
2021/05/15 06:58:22;;;;;;;5.30;4.80;;;;;;;21.10;52.60;98339.15;125177;1102;64386;-86
2021/05/15 07:00:50;;;;;;;4.83;4.33;;;;;;;21.31;52.77;98335.70;125005;1101;64370;-89
2021/05/15 07:03:17;;;;;;;4.83;4.30;;;;;;;21.48;52.18;98329.06;125458;1096;64334;-88
2021/05/15 07:05:44;;;;;;;4.47;4.17;;;;;;;21.42;51.81;98333.37;125140;1097;64336;-88
2021/05/15 07:08:13;;;;;;;4.43;4.10;;;;;;;21.38;51.88;98334.80;125363;1101;64759;-87
2021/05/15 07:10:40;;;;;;;4.67;4.27;;;;;;;21.34;52.07;98329.89;124967;1101;64232;-88
2021/05/15 07:13:08;;;;;;;4.43;4.03;;;;;;;21.27;52.35;98340.63;124925;1096;64375;-89
2021/05/15 07:15:35;;;;;;;4.87;4.47;;;;;;;20.88;52.42;98335.46;124737;1097;64332;-89
2021/05/15 07:18:03;;;;;;;4.47;4.07;;;;;;;20.37;51.84;98336.06;124896;1104;64430;-88
2021/05/15 07:20:30;;;;;;;4.37;4.07;;;;;;;19.95;53.26;98335.50;124975;1104;64361;-90
2021/05/15 07:22:58;;;;;;;4.53;4.13;;;;;;;19.60;53.53;98336.86;124812;1104;64246;-90
2021/05/15 07:25:25;;;;;;;4.60;4.20;;;;;;;19.13;54.26;98337.71;124780;1104;64403;-88
2021/05/15 07:27:53;;;;;;;4.73;4.33;;;;;;;18.92;53.75;98337.44;124793;1097;64422;-86
2021/05/15 07:30:20;;;;;;;5.05;4.60;;;;;;;18.77;54.76;98339.98;124930;1104;64326;-91
2021/05/15 07:32:48;;;;;;;5.93;5.43;;;;;;;18.72;55.32;98347.71;125184;1104;64310;-90
2021/05/15 07:35:16;;;;;;;4.77;4.23;;;;;;;18.74;55.81;98338.43;125044;1097;64322;-83
2021/05/15 07:37:43;;;;;;;4.63;4.33;;;;;;;18.76;54.94;98343.70;124822;1104;64325;-83
2021/05/15 07:40:11;;;;;;;5.70;5.00;;;;;;;18.75;55.63;98344.73;124592;1097;64300;-86
2021/05/15 07:42:39;;;;;;;5.83;5.33;;;;;;;18.75;55.69;98347.43;124685;1096;64296;-83
2021/05/15 07:45:07;;;;;;;5.00;4.50;;;;;;;18.75;55.89;98348.27;124818;1101;64460;-83
2021/05/15 07:47:34;;;;;;;5.30;4.80;;;;;;;18.80;55.79;98350.43;125006;1097;64364;-83
2021/05/15 07:50:02;;;;;;;5.63;5.20;;;;;;;18.75;56.05;98344.73;124834;1101;64336;-84
2021/05/15 07:52:29;;;;;;;5.90;5.30;;;;;;;18.57;56.05;98348.41;124875;1101;64246;-84
2021/05/15 07:54:56;;;;;;;5.43;5.03;;;;;;;18.64;55.88;98351.26;124702;1101;64361;-84
2021/05/15 07:57:24;;;;;;;5.23;4.73;;;;;;;18.67;54.68;98352.77;124910;1097;64462;-82
2021/05/15 07:59:52;;;;;;;5.10;4.60;;;;;;;18.64;56.42;98356.66;124830;1096;64323;-84
2021/05/15 08:02:21;;;;;;;5.10;4.70;;;;;;;18.73;56.64;98344.02;124875;1101;64370;-83
2021/05/15 08:04:48;;;;;;;5.10;4.70;;;;;;;18.83;56.52;98342.02;124978;1097;64413;-84
2021/05/15 08:07:15;;;;;;;4.47;4.10;;;;;;;18.86;56.72;98347.06;124946;1101;64323;-83
2021/05/15 08:09:43;;;;;;;5.00;4.50;;;;;;;19.01;56.61;98342.66;124845;1096;64335;-85
2021/05/15 08:12:10;;;;;;;4.57;4.20;;;;;;;19.20;55.88;98349.52;125118;1096;64352;-82
2021/05/15 08:14:37;;;;;;;5.57;5.17;;;;;;;19.27;56.22;98346.95;124783;1101;64473;-83
2021/05/15 08:17:04;;;;;;;5.47;5.00;;;;;;;19.42;56.37;98339.80;124593;1096;64402;-84
2021/05/15 08:19:32;;;;;;;5.53;5.10;;;;;;;19.57;55.96;98344.49;124745;1097;64360;-85
2021/05/15 08:21:59;;;;;;;6.27;4.90;;;;;;;19.66;55.96;98343.41;124775;1097;64326;-82
2021/05/15 08:24:26;;;;;;;5.30;4.80;;;;;;;19.74;55.20;98341.53;124877;1101;64326;-85
2021/05/15 08:26:55;;;;;;;4.93;4.57;;;;;;;19.77;55.59;98351.16;124830;1096;64326;-84
2021/05/15 08:29:24;;;;;;;5.15;4.75;;;;;;;19.67;55.54;98359.50;124871;1096;64316;-84
2021/05/15 08:31:51;;;;;;;4.63;4.23;;;;;;;19.55;54.86;98354.63;124885;1096;64332;-84
2021/05/15 08:34:19;;;;;;;5.27;4.77;;;;;;;19.62;54.84;98358.32;124676;1097;64452;-84
2021/05/15 08:36:47;;;;;;;6.30;5.27;;;;;;;19.51;54.55;98359.55;124674;1104;64366;-83
2021/05/15 08:39:14;;;;;;;5.37;4.87;;;;;;;19.11;54.89;98358.64;124837;1104;64431;-83
2021/05/15 08:41:41;;;;;;;4.73;4.33;;;;;;;18.84;54.87;98363.42;124624;1097;64360;-83
2021/05/15 08:44:13;;;;;;;5.20;4.77;;;;;;;18.88;55.35;98363.08;124868;1104;64252;-84
2021/05/15 08:46:44;;;;;;;5.80;5.40;;;;;;;19.06;55.28;98363.72;126087;1101;64226;-82
2021/05/15 08:49:14;;;;;;;5.07;4.67;;;;;;;19.43;55.87;98367.66;124858;1104;64249;-82
2021/05/15 08:51:42;;;;;;;4.97;4.57;;;;;;;19.73;56.18;98350.68;124941;1104;64512;-82
2021/05/15 08:54:11;;;;;;;5.30;4.60;;;;;;;20.02;56.21;98365.39;124979;1102;64477;-82
2021/05/15 08:56:38;;;;;;;4.43;4.13;;;;;;;20.18;54.68;98351.76;125318;1101;64384;-82
2021/05/15 08:59:06;;;;;;;4.83;4.43;;;;;;;19.94;54.16;98360.04;124978;1097;64294;-83
2021/05/15 09:01:33;;;;;;;4.07;3.63;;;;;;;19.67;53.82;98366.78;124788;1104;64291;-83
2021/05/15 09:04:00;;;;;;;4.53;4.13;;;;;;;19.74;53.88;98359.63;125038;1097;64367;-83
2021/05/15 09:06:27;;;;;;;4.13;3.80;;;;;;;19.80;55.00;98360.77;124909;1104;64233;-83
2021/05/15 09:08:55;;;;;;;4.90;4.40;;;;;;;19.98;54.29;98358.64;124899;1104;64398;-83
2021/05/15 09:11:22;;;;;;;5.00;4.37;;;;;;;20.13;53.79;98356.03;125114;1097;64256;-85
2021/05/15 09:13:55;;;;;;;5.23;4.73;;;;;;;19.92;53.01;98356.66;124947;1104;64303;-84
2021/05/15 09:16:23;;;;;;;4.63;4.17;;;;;;;19.73;53.71;98349.84;125015;1097;64427;-83
2021/05/15 09:18:51;;;;;;;4.50;4.10;;;;;;;19.68;53.71;98357.64;125013;1096;64328;-83
2021/05/15 09:21:21;;;;;;;3.63;3.33;;;;;;;19.95;54.05;98346.31;124699;1097;64852;-81
2021/05/15 09:23:51;;;;;;;3.30;3.10;;;;;;;20.31;53.90;98351.16;124548;1104;64246;-84
2021/05/15 09:26:27;;;;;;;4.00;3.60;;;;;;;20.66;53.03;98343.45;124626;1104;64336;-84
2021/05/15 09:28:57;;;;;;;3.43;3.13;;;;;;;20.87;52.49;98331.08;124615;1104;64466;-82
2021/05/15 09:31:33;;;;;;;3.80;3.50;;;;;;;21.10;52.16;98339.98;124620;1096;64272;-83
2021/05/15 09:34:03;;;;;;;3.93;3.17;;;;;;;21.22;52.01;98353.90;124643;1096;64309;-84
2021/05/15 09:36:45;;;;;;;4.37;3.97;;;;;;;21.27;50.97;98346.05;124701;1097;64211;-83
2021/05/15 09:39:14;;;;;;;3.50;3.20;;;;;;;21.20;50.08;98351.39;124612;1097;64331;-83
2021/05/15 09:41:51;;;;;;;3.70;3.40;;;;;;;21.09;49.34;98342.87;124588;1104;64306;-84
2021/05/15 09:44:21;;;;;;;4.03;3.03;;;;;;;20.95;50.15;98344.54;124627;1097;64447;-83
2021/05/15 09:46:50;;;;;;;4.20;3.13;;;;;;;21.03;50.23;98345.29;124616;1104;64345;-82
2021/05/15 09:49:21;;;;;;;3.27;2.70;;;;;;;21.07;49.88;98339.52;124567;1104;64246;-82
2021/05/15 09:52:00;;;;;;;3.47;3.07;;;;;;;21.14;49.81;98343.15;124552;1104;64323;-83
2021/05/15 09:54:33;;;;;;;3.53;2.90;;;;;;;21.17;49.99;98334.64;124578;1097;64320;-83
2021/05/15 09:57:05;;;;;;;4.05;3.40;;;;;;;21.19;49.88;98332.59;124562;1104;64339;-84
2021/05/15 09:59:42;;;;;;;2.43;2.23;;;;;;;21.31;49.56;98341.95;124594;1096;64251;-83
2021/05/15 10:02:14;;;;;;;3.03;2.73;;;;;;;21.34;49.66;98335.31;124605;1104;64846;-85
2021/05/15 10:04:48;;;;;;;2.63;2.43;;;;;;;21.20;48.12;98337.01;124655;1097;64246;-82
2021/05/15 10:07:17;;;;;;;2.43;2.23;;;;;;;21.11;48.45;98338.95;124636;1104;64392;-83
2021/05/15 10:09:45;;;;;;;2.40;2.00;;;;;;;21.12;46.90;98334.39;124645;1104;64326;-83
2021/05/15 10:12:12;;;;;;;2.95;2.00;;;;;;;21.18;47.44;98326.34;124671;1097;64332;-83
2021/05/15 10:14:41;;;;;;;2.97;2.37;;;;;;;21.22;48.37;98324.95;124549;1104;64406;-83
2021/05/15 10:17:09;;;;;;;2.30;1.90;;;;;;;21.18;45.38;98322.80;124561;1104;64338;-83
2021/05/15 10:19:36;;;;;;;3.57;2.60;;;;;;;20.95;47.07;98331.00;124584;1104;64353;-83
2021/05/15 10:22:05;;;;;;;2.77;2.23;;;;;;;21.05;48.23;98318.02;124506;1104;64322;-82
2021/05/15 10:24:36;;;;;;;3.43;2.50;;;;;;;21.20;47.74;98318.88;124625;1097;64299;-83
2021/05/15 10:27:11;;;;;;;2.00;1.90;;;;;;;21.25;47.24;98315.61;124652;1097;64243;-83
2021/05/15 10:29:53;;;;;;;2.47;2.30;;;;;;;21.22;47.09;98305.11;124624;1104;64249;-82
2021/05/15 10:32:30;;;;;;;3.20;2.40;;;;;;;21.28;47.59;98311.69;124708;1104;64431;-83
2021/05/15 10:35:01;;;;;;;3.20;2.30;;;;;;;21.37;47.06;98318.67;124570;1104;64333;-83
2021/05/15 10:37:36;;;;;;;2.90;2.70;;;;;;;21.20;45.25;98302.61;124679;1097;64300;-84
2021/05/15 10:40:18;;;;;;;3.10;2.80;;;;;;;21.14;47.01;98311.47;124617;1097;64348;-83
2021/05/15 10:42:58;;;;;;;3.03;2.30;;;;;;;21.35;47.41;98296.33;124633;1097;64339;-83
2021/05/15 10:45:37;;;;;;;2.88;1.93;;;;;;;21.55;47.61;98289.33;124882;1097;64230;-83
2021/05/15 10:48:24;;;;;;;2.83;2.10;;;;;;;21.65;47.40;98280.89;124925;1097;64278;-83
2021/05/15 10:50:57;;;;;;;3.23;2.00;;;;;;;21.74;46.17;98289.75;124915;1096;64326;-83
2021/05/15 10:53:27;;;;;;;3.30;2.03;;;;;;;21.65;45.67;98281.73;125009;1097;64317;-83
2021/05/15 10:56:17;;;;;;;1.97;1.83;;;;;;;21.60;46.02;98281.45;124952;1096;64275;-83
2021/05/15 10:58:47;;;;;;;2.55;2.35;;;;;;;21.56;46.15;98274.72;124939;1101;64396;-81
2021/05/15 11:01:26;;;;;;;2.17;1.97;;;;;;;21.63;46.71;98275.65;124942;1101;64400;-83
2021/05/15 11:03:53;;;;;;;3.10;2.50;;;;;;;21.66;46.34;98277.97;124966;1101;64253;-82
2021/05/15 11:06:23;;;;;;;2.40;2.20;;;;;;;21.82;46.31;98265.21;125120;1096;64266;-83
2021/05/15 11:09:00;;;;;;;2.40;2.17;;;;;;;21.88;44.35;98270.72;124968;1096;64663;-82
2021/05/15 11:12:08;;;;;;;3.20;2.00;;;;;;;21.91;45.69;98258.64;124854;1096;64352;-84
2021/05/15 11:14:39;;;;;;;2.10;1.90;;;;;;;22.07;44.86;98249.41;124944;1097;64268;-83
2021/05/15 11:17:16;;;;;;;1.95;1.75;;;;;;;21.99;45.04;98249.55;124940;1101;64422;-86
2021/05/15 11:19:52;;;;;;;2.80;2.20;;;;;;;22.04;45.29;98241.66;125124;1101;64368;-83
2021/05/15 11:22:33;;;;;;;2.67;2.47;;;;;;;22.22;44.86;98244.78;124915;1101;64303;-82
2021/05/15 11:25:02;;;;;;;4.83;2.57;;;;;;;22.23;43.48;98235.59;124811;1101;64394;-83
2021/05/15 11:27:31;;;;;;;3.05;2.38;;;;;;;22.17;43.39;98246.34;124874;1096;64335;-84
2021/05/15 11:30:16;;;;;;;2.55;2.20;;;;;;;22.11;43.27;98245.25;124849;1101;64300;-82
2021/05/15 11:33:00;;;;;;;3.07;2.10;;;;;;;22.06;43.71;98237.69;124893;1096;64300;-83